Sea Dolphin C — V7XL9 — position and weather

sailwx.info

Track history (hours):
 
Tides and Currents Weather Stations Pressure Air Temp Water Temp Dewpoint Dewpoint Depression Visibility Wind Speed Wind Dir Waves Ship Positions

Sea Dolphin C

Last reported at 2017-Nov-25 07:13 UTC. Time now 2017-Nov-25 11:40 UTC.
Position N 37°17' E 006°30'.

Length 181 m; draft 9.8 m.

Type: Cargo ship. MMSI: 538004513.

Date/timePositionNaut miles runAvg speedWind from/ knotsBaromVisibWave heightAir tempDewpointWater temp
2017-Nov-25 07:13N 37°17' E 006°30'4411.1
2017-Nov-25 03:14N 37°19' E 007°25'311.3
2017-Nov-25 03:00N 37°19' E 007°29'611.6
2017-Nov-25 02:29N 37°19' E 007°36'611.7
2017-Nov-25 01:59N 37°19' E 007°43'712.1
2017-Nov-25 01:26N 37°20' E 007°52'612.1
2017-Nov-25 00:58N 37°20' E 007°59'28111.2
2017-Nov-23 23:54N 36°38' E 013°47'1011.8
2017-Nov-23 23:05N 36°35' E 013°58'111.8
2017-Nov-23 22:59N 36°35' E 013°60'611.7
2017-Nov-23 22:30N 36°34' E 014°06'611.6
2017-Nov-23 22:01N 36°32' E 014°13'611.6
2017-Nov-23 21:30N 36°31' E 014°20'611.6
2017-Nov-23 21:00N 36°29' E 014°27'611.4
2017-Nov-23 20:30N 36°28' E 014°34'611.5
2017-Nov-23 20:00N 36°27' E 014°41'  
2017-Nov-18 10:18N 45°02' E 036°36'310.7
2017-Nov-18 10:00N 45°05' E 036°36'3 0.1
2017-Nov-16 11:16N 45°07' E 036°39'1 2.4
2017-Nov-16 11:01N 45°07' E 036°38'2 4.1
2017-Nov-16 10:30N 45°05' E 036°37'  
Track history (hours):
 
Tides and Currents Weather Stations Pressure Air Temp Water Temp Dewpoint Dewpoint Depression Visibility Wind Speed Wind Dir Waves Ship Positions

Sea Dolphin C

Last reported at 2017-Nov-25 07:13 UTC. Time now 2017-Nov-25 11:40 UTC.
Position N 37°17' E 006°30'.

Length 181 m; draft 9.8 m.

Type: Cargo ship. MMSI: 538004513.

Date/timePositionNaut miles runAvg speedWind from/ knotsBaromVisibWave heightAir tempDewpointWater temp
2017-Nov-25 07:13N 37°17' E 006°30'4411.1
2017-Nov-25 03:14N 37°19' E 007°25'311.3
2017-Nov-25 03:00N 37°19' E 007°29'611.6
2017-Nov-25 02:29N 37°19' E 007°36'611.7
2017-Nov-25 01:59N 37°19' E 007°43'712.1
2017-Nov-25 01:26N 37°20' E 007°52'612.1
2017-Nov-25 00:58N 37°20' E 007°59'28111.2
2017-Nov-23 23:54N 36°38' E 013°47'1011.8
2017-Nov-23 23:05N 36°35' E 013°58'111.8
2017-Nov-23 22:59N 36°35' E 013°60'611.7
2017-Nov-23 22:30N 36°34' E 014°06'611.6
2017-Nov-23 22:01N 36°32' E 014°13'611.6
2017-Nov-23 21:30N 36°31' E 014°20'611.6
2017-Nov-23 21:00N 36°29' E 014°27'611.4
2017-Nov-23 20:30N 36°28' E 014°34'611.5
2017-Nov-23 20:00N 36°27' E 014°41'  
2017-Nov-18 10:18N 45°02' E 036°36'310.7
2017-Nov-18 10:00N 45°05' E 036°36'3 0.1
2017-Nov-16 11:16N 45°07' E 036°39'1 2.4
2017-Nov-16 11:01N 45°07' E 036°38'2 4.1
2017-Nov-16 10:30N 45°05' E 036°37'  

Dump ship's entire track history